sensor_id;sensor_type;location;lat;lon;timestamp;pressure;altitude;pressure_sealevel;temperature;humidity
43707;BME280;61348;53.392;-6.248;2022-12-11T00:02:01;100229.25;;;0.33;100.00
43707;BME280;61348;53.392;-6.248;2022-12-11T00:04:27;100228.94;;;0.35;100.00
43707;BME280;61348;53.392;-6.248;2022-12-11T00:06:54;100234.13;;;0.36;100.00
43707;BME280;61348;53.392;-6.248;2022-12-11T00:09:21;100236.84;;;0.36;100.00
43707;BME280;61348;53.392;-6.248;2022-12-11T00:11:48;100230.00;;;0.39;100.00
43707;BME280;61348;53.392;-6.248;2022-12-11T00:14:17;100222.63;;;0.39;100.00
43707;BME280;61348;53.392;-6.248;2022-12-11T00:16:46;100226.97;;;0.40;100.00
43707;BME280;61348;53.392;-6.248;2022-12-11T00:19:14;100232.97;;;0.42;100.00
43707;BME280;61348;53.392;-6.248;2022-12-11T00:21:41;100229.13;;;0.43;100.00
43707;BME280;61348;53.392;-6.248;2022-12-11T00:24:08;100218.22;;;0.43;100.00
43707;BME280;61348;53.392;-6.248;2022-12-11T00:26:35;100220.66;;;0.45;100.00
43707;BME280;61348;53.392;-6.248;2022-12-11T00:29:03;100217.66;;;0.46;100.00
43707;BME280;61348;53.392;-6.248;2022-12-11T00:31:29;100213.84;;;0.47;100.00
43707;BME280;61348;53.392;-6.248;2022-12-11T00:34:02;100228.47;;;0.51;100.00
43707;BME280;61348;53.392;-6.248;2022-12-11T00:36:29;100236.63;;;0.51;100.00
43707;BME280;61348;53.392;-6.248;2022-12-11T00:38:55;100233.41;;;0.49;100.00
43707;BME280;61348;53.392;-6.248;2022-12-11T00:41:22;100223.09;;;0.46;100.00
43707;BME280;61348;53.392;-6.248;2022-12-11T00:43:49;100233.97;;;0.46;100.00
43707;BME280;61348;53.392;-6.248;2022-12-11T00:46:17;100222.78;;;0.48;100.00
43707;BME280;61348;53.392;-6.248;2022-12-11T00:48:44;100226.31;;;0.48;100.00
43707;BME280;61348;53.392;-6.248;2022-12-11T00:51:11;100225.22;;;0.49;100.00
43707;BME280;61348;53.392;-6.248;2022-12-11T00:53:38;100224.94;;;0.51;100.00
43707;BME280;61348;53.392;-6.248;2022-12-11T00:56:13;100221.38;;;0.50;100.00
43707;BME280;61348;53.392;-6.248;2022-12-11T00:58:40;100228.78;;;0.50;100.00
43707;BME280;61348;53.392;-6.248;2022-12-11T01:01:09;100225.22;;;0.49;100.00
43707;BME280;61348;53.392;-6.248;2022-12-11T01:03:36;100224.13;;;0.50;100.00
43707;BME280;61348;53.392;-6.248;2022-12-11T01:06:04;100219.78;;;0.49;100.00
43707;BME280;61348;53.392;-6.248;2022-12-11T01:08:31;100221.94;;;0.52;100.00
43707;BME280;61348;53.392;-6.248;2022-12-11T01:11:07;100221.94;;;0.52;100.00
43707;BME280;61348;53.392;-6.248;2022-12-11T01:13:34;100218.09;;;0.53;100.00
43707;BME280;61348;53.392;-6.248;2022-12-11T01:16:05;100212.66;;;0.53;100.00
43707;BME280;61348;53.392;-6.248;2022-12-11T01:18:32;100208.00;;;0.54;100.00
43707;BME280;61348;53.392;-6.248;2022-12-11T01:20:59;100215.38;;;0.53;100.00
43707;BME280;61348;53.392;-6.248;2022-12-11T01:23:25;100210.22;;;0.52;100.00
43707;BME280;61348;53.392;-6.248;2022-12-11T01:25:52;100206.16;;;0.49;100.00
43707;BME280;61348;53.392;-6.248;2022-12-11T01:28:19;100203.44;;;0.49;100.00
43707;BME280;61348;53.392;-6.248;2022-12-11T01:30:45;100207.78;;;0.50;100.00
43707;BME280;61348;53.392;-6.248;2022-12-11T01:33:12;100213.75;;;0.52;100.00
43707;BME280;61348;53.392;-6.248;2022-12-11T01:35:39;100211.03;;;0.52;100.00
43707;BME280;61348;53.392;-6.248;2022-12-11T01:38:06;100212.66;;;0.53;100.00
43707;BME280;61348;53.392;-6.248;2022-12-11T01:40:32;100208.00;;;0.54;100.00
43707;BME280;61348;53.392;-6.248;2022-12-11T01:42:59;100205.59;;;0.52;100.00
43707;BME280;61348;53.392;-6.248;2022-12-11T01:45:41;100197.44;;;0.52;100.00
43707;BME280;61348;53.392;-6.248;2022-12-11T01:48:13;100199.34;;;0.52;100.00
43707;BME280;61348;53.392;-6.248;2022-12-11T01:50:53;100205.06;;;0.50;100.00
43707;BME280;61348;53.392;-6.248;2022-12-11T01:53:26;100202.13;;;0.47;100.00
43707;BME280;61348;53.392;-6.248;2022-12-11T01:55:54;100203.50;;;0.44;100.00
43707;BME280;61348;53.392;-6.248;2022-12-11T01:58:26;100199.75;;;0.40;100.00
43707;BME280;61348;53.392;-6.248;2022-12-11T02:00:55;100188.34;;;0.38;100.00
43707;BME280;61348;53.392;-6.248;2022-12-11T02:03:22;100192.16;;;0.37;100.00
43707;BME280;61348;53.392;-6.248;2022-12-11T02:05:49;100188.91;;;0.35;100.00
43707;BME280;61348;53.392;-6.248;2022-12-11T02:08:15;100193.53;;;0.35;100.00
43707;BME280;61348;53.392;-6.248;2022-12-11T02:13:38;100199.00;;;0.35;100.00
43707;BME280;61348;53.392;-6.248;2022-12-11T02:16:32;100209.31;;;0.38;100.00
43707;BME280;61348;53.392;-6.248;2022-12-11T02:19:32;100212.25;;;0.41;100.00
43707;BME280;61348;53.392;-6.248;2022-12-11T02:22:02;100219.03;;;0.44;100.00
43707;BME280;61348;53.392;-6.248;2022-12-11T02:27:28;100215.81;;;0.42;100.00
43707;BME280;61348;53.392;-6.248;2022-12-11T02:30:02;100224.25;;;0.40;100.00
43707;BME280;61348;53.392;-6.248;2022-12-11T02:32:57;100231.59;;;0.40;100.00
43707;BME280;61348;53.392;-6.248;2022-12-11T02:35:32;100229.69;;;0.40;100.00
43707;BME280;61348;53.392;-6.248;2022-12-11T02:38:08;100228.59;;;0.41;100.00
43707;BME280;61348;53.392;-6.248;2022-12-11T02:40:38;100232.66;;;0.44;100.00
43707;BME280;61348;53.392;-6.248;2022-12-11T02:43:09;100236.19;;;0.44;100.00
43707;BME280;61348;53.392;-6.248;2022-12-11T02:45:39;100229.94;;;0.44;100.00
43707;BME280;61348;53.392;-6.248;2022-12-11T02:48:08;100223.09;;;0.46;100.00
43707;BME280;61348;53.392;-6.248;2022-12-11T02:50:41;100236.72;;;0.46;100.00
43707;BME280;61348;53.392;-6.248;2022-12-11T02:53:11;100225.50;;;0.48;100.00
43707;BME280;61348;53.392;-6.248;2022-12-11T02:55:41;100230.69;;;0.49;100.00
43707;BME280;61348;53.392;-6.248;2022-12-11T02:58:18;100215.94;;;0.50;100.00
43707;BME280;61348;53.392;-6.248;2022-12-11T03:00:47;100220.03;;;0.53;100.00
43707;BME280;61348;53.392;-6.248;2022-12-11T03:03:14;100216.50;;;0.52;100.00
43707;BME280;61348;53.392;-6.248;2022-12-11T03:05:41;100207.19;;;0.53;100.00
43707;BME280;61348;53.392;-6.248;2022-12-11T03:08:08;100212.66;;;0.53;100.00
43707;BME280;61348;53.392;-6.248;2022-12-11T03:10:35;100205.28;;;0.54;100.00
43707;BME280;61348;53.392;-6.248;2022-12-11T03:13:02;100209.91;;;0.53;100.00
43707;BME280;61348;53.392;-6.248;2022-12-11T03:15:42;100216.69;;;0.56;100.00
43707;BME280;61348;53.392;-6.248;2022-12-11T03:18:18;100220.53;;;0.55;100.00
43707;BME280;61348;53.392;-6.248;2022-12-11T03:21:01;100218.09;;;0.53;100.00
43707;BME280;61348;53.392;-6.248;2022-12-11T03:23:43;100217.81;;;0.55;100.00
43707;BME280;61348;53.392;-6.248;2022-12-11T03:26:16;100209.66;;;0.55;100.00
43707;BME280;61348;53.392;-6.248;2022-12-11T03:28:48;100213.69;;;0.57;100.00
43707;BME280;61348;53.392;-6.248;2022-12-11T03:31:31;100221.56;;;0.59;100.00
43707;BME280;61348;53.392;-6.248;2022-12-11T03:34:03;100218.56;;;0.60;100.00
43707;BME280;61348;53.392;-6.248;2022-12-11T03:36:35;100214.72;;;0.61;100.00
43707;BME280;61348;53.392;-6.248;2022-12-11T03:39:09;100211.47;;;0.59;100.00
43707;BME280;61348;53.392;-6.248;2022-12-11T03:41:39;100212.88;;;0.57;100.00
43707;BME280;61348;53.392;-6.248;2022-12-11T03:44:08;100214.78;;;0.56;100.00
43707;BME280;61348;53.392;-6.248;2022-12-11T03:46:37;100207.75;;;0.55;100.00
43707;BME280;61348;53.392;-6.248;2022-12-11T03:49:16;100218.91;;;0.54;100.00
43707;BME280;61348;53.392;-6.248;2022-12-11T03:51:45;100212.66;;;0.53;100.00
43707;BME280;61348;53.392;-6.248;2022-12-11T03:54:14;100214.28;;;0.54;100.00
43707;BME280;61348;53.392;-6.248;2022-12-11T03:56:43;100212.66;;;0.53;100.00
43707;BME280;61348;53.392;-6.248;2022-12-11T03:59:11;100214.59;;;0.53;100.00
43707;BME280;61348;53.392;-6.248;2022-12-11T04:01:38;100213.47;;;0.54;100.00
43707;BME280;61348;53.392;-6.248;2022-12-11T04:04:05;100214.28;;;0.54;100.00
43707;BME280;61348;53.392;-6.248;2022-12-11T04:06:31;100203.69;;;0.53;100.00
43707;BME280;61348;53.392;-6.248;2022-12-11T04:08:58;100210.50;;;0.50;100.00
43707;BME280;61348;53.392;-6.248;2022-12-11T04:11:25;100203.72;;;0.48;100.00
43707;BME280;61348;53.392;-6.248;2022-12-11T04:14:12;100205.13;;;0.45;100.00
43707;BME280;61348;53.392;-6.248;2022-12-11T04:16:59;100201.59;;;0.45;100.00
43707;BME280;61348;53.392;-6.248;2022-12-11T04:19:26;100208.44;;;0.42;100.00
43707;BME280;61348;53.392;-6.248;2022-12-11T04:22:13;100212.78;;;0.43;100.00
43707;BME280;61348;53.392;-6.248;2022-12-11T04:25:00;100220.66;;;0.45;100.00
43707;BME280;61348;53.392;-6.248;2022-12-11T04:27:27;100224.19;;;0.45;100.00
43707;BME280;61348;53.392;-6.248;2022-12-11T04:30:16;100213.00;;;0.47;100.00
43707;BME280;61348;53.392;-6.248;2022-12-11T04:32:43;100222.28;;;0.46;100.00
43707;BME280;61348;53.392;-6.248;2022-12-11T04:35:11;100201.88;;;0.43;100.00
43707;BME280;61348;53.392;-6.248;2022-12-11T04:37:39;100203.00;;;0.42;100.00
43707;BME280;61348;53.392;-6.248;2022-12-11T04:40:09;100189.38;;;0.42;100.00
43707;BME280;61348;53.392;-6.248;2022-12-11T04:42:36;100186.94;;;0.41;100.00
43707;BME280;61348;53.392;-6.248;2022-12-11T04:45:04;100194.59;;;0.39;100.00
43707;BME280;61348;53.392;-6.248;2022-12-11T04:47:34;100186.50;;;0.34;100.00
43707;BME280;61348;53.392;-6.248;2022-12-11T04:50:02;100187.13;;;0.26;100.00
43707;BME280;61348;53.392;-6.248;2022-12-11T04:52:29;100178.50;;;0.19;100.00
43707;BME280;61348;53.392;-6.248;2022-12-11T04:54:55;100173.13;;;0.14;100.00
43707;BME280;61348;53.392;-6.248;2022-12-11T04:57:22;100174.81;;;0.10;100.00
43707;BME280;61348;53.392;-6.248;2022-12-11T04:59:49;100182.47;;;0.08;100.00
43707;BME280;61348;53.392;-6.248;2022-12-11T05:02:16;100181.41;;;0.04;100.00
43707;BME280;61348;53.392;-6.248;2022-12-11T05:04:43;100184.44;;;0.02;100.00
43707;BME280;61348;53.392;-6.248;2022-12-11T05:07:09;100189.88;;;0.02;100.00
43707;BME280;61348;53.392;-6.248;2022-12-11T05:09:36;100181.41;;;0.04;100.00
43707;BME280;61348;53.392;-6.248;2022-12-11T05:12:03;100189.28;;;0.05;100.00
43707;BME280;61348;53.392;-6.248;2022-12-11T05:14:30;100190.31;;;0.09;100.00
43707;BME280;61348;53.392;-6.248;2022-12-11T05:16:58;100190.84;;;0.11;100.00
43707;BME280;61348;53.392;-6.248;2022-12-11T05:19:26;100196.81;;;0.13;100.00
43707;BME280;61348;53.392;-6.248;2022-12-11T05:21:53;100201.66;;;0.16;100.00
43707;BME280;61348;53.392;-6.248;2022-12-11T05:24:19;100198.66;;;0.18;100.00
43707;BME280;61348;53.392;-6.248;2022-12-11T05:26:46;100204.94;;;0.18;100.00
43707;BME280;61348;53.392;-6.248;2022-12-11T05:29:13;100204.94;;;0.18;100.00
43707;BME280;61348;53.392;-6.248;2022-12-11T05:31:39;100196.75;;;0.18;100.00
43707;BME280;61348;53.392;-6.248;2022-12-11T05:34:06;100210.94;;;0.15;100.00
43707;BME280;61348;53.392;-6.248;2022-12-11T05:36:33;100207.97;;;0.12;100.00
43707;BME280;61348;53.392;-6.248;2022-12-11T05:39:01;100200.38;;;0.09;100.00
43707;BME280;61348;53.392;-6.248;2022-12-11T05:41:29;100197.72;;;0.04;100.00
43707;BME280;61348;53.392;-6.248;2022-12-11T05:43:58;100196.91;;;0.03;100.00
43707;BME280;61348;53.392;-6.248;2022-12-11T05:46:27;100206.19;;;0.02;100.00
43707;BME280;61348;53.392;-6.248;2022-12-11T05:48:57;100203.47;;;0.02;100.00
43707;BME280;61348;53.392;-6.248;2022-12-11T05:51:25;100209.19;;;0.00;100.00
43707;BME280;61348;53.392;-6.248;2022-12-11T05:53:53;100211.63;;;0.02;100.00
43707;BME280;61348;53.392;-6.248;2022-12-11T05:56:22;100220.31;;;0.04;100.00
43707;BME280;61348;53.392;-6.248;2022-12-11T05:58:49;100209.66;;;0.08;100.00
43707;BME280;61348;53.392;-6.248;2022-12-11T06:01:41;100210.47;;;0.08;100.00
43707;BME280;61348;53.392;-6.248;2022-12-11T06:04:07;100205.84;;;0.09;100.00
43707;BME280;61348;53.392;-6.248;2022-12-11T06:06:35;100209.38;;;0.09;100.00
43707;BME280;61348;53.392;-6.248;2022-12-11T06:09:03;100210.47;;;0.08;100.00
43707;BME280;61348;53.392;-6.248;2022-12-11T06:11:31;100214.00;;;0.09;100.00
43707;BME280;61348;53.392;-6.248;2022-12-11T06:14:00;100214.56;;;0.06;100.00
43707;BME280;61348;53.392;-6.248;2022-12-11T06:16:27;100210.25;;;0.05;100.00
43707;BME280;61348;53.392;-6.248;2022-12-11T06:18:54;100223.03;;;0.04;100.00
43707;BME280;61348;53.392;-6.248;2022-12-11T06:21:31;100223.34;;;0.03;100.00
43707;BME280;61348;53.392;-6.248;2022-12-11T06:24:01;100228.47;;;0.04;100.00
43707;BME280;61348;53.392;-6.248;2022-12-11T06:26:29;100220.00;;;0.06;100.00
43707;BME280;61348;53.392;-6.248;2022-12-11T06:28:55;100225.19;;;0.07;100.00
43707;BME280;61348;53.392;-6.248;2022-12-11T06:31:22;100223.78;;;0.10;100.00
43707;BME280;61348;53.392;-6.248;2022-12-11T06:33:49;100228.66;;;0.13;100.00
43707;BME280;61348;53.392;-6.248;2022-12-11T06:36:19;100228.88;;;0.16;100.00
43707;BME280;61348;53.392;-6.248;2022-12-11T06:38:46;100230.22;;;0.19;100.00
43707;BME280;61348;53.392;-6.248;2022-12-11T06:41:14;100227.72;;;0.22;100.00
43707;BME280;61348;53.392;-6.248;2022-12-11T06:43:41;100230.19;;;0.24;100.00
43707;BME280;61348;53.392;-6.248;2022-12-11T06:46:13;100222.28;;;0.22;100.00
43707;BME280;61348;53.392;-6.248;2022-12-11T06:48:41;100221.47;;;0.22;100.00
43707;BME280;61348;53.392;-6.248;2022-12-11T06:51:11;100214.13;;;0.22;100.00
43707;BME280;61348;53.392;-6.248;2022-12-11T06:53:38;100222.28;;;0.22;100.00
43707;BME280;61348;53.392;-6.248;2022-12-11T06:56:08;100216.84;;;0.22;100.00
43707;BME280;61348;53.392;-6.248;2022-12-11T06:58:36;100212.22;;;0.23;100.00
43707;BME280;61348;53.392;-6.248;2022-12-11T07:01:03;100216.84;;;0.22;100.00
43707;BME280;61348;53.392;-6.248;2022-12-11T07:03:31;100215.25;;;0.21;100.00
43707;BME280;61348;53.392;-6.248;2022-12-11T07:06:01;100218.00;;;0.16;100.00
43707;BME280;61348;53.392;-6.248;2022-12-11T07:08:28;100218.00;;;0.16;100.00
43707;BME280;61348;53.392;-6.248;2022-12-11T07:11:05;100221.00;;;0.15;100.00
43707;BME280;61348;53.392;-6.248;2022-12-11T07:13:32;100207.72;;;0.13;100.00
43707;BME280;61348;53.392;-6.248;2022-12-11T07:15:59;100209.88;;;0.11;100.00
43707;BME280;61348;53.392;-6.248;2022-12-11T07:18:27;100211.00;;;0.10;100.00
43707;BME280;61348;53.392;-6.248;2022-12-11T07:20:57;100207.47;;;0.10;100.00
43707;BME280;61348;53.392;-6.248;2022-12-11T07:23:26;100210.75;;;0.07;100.00
43707;BME280;61348;53.392;-6.248;2022-12-11T07:25:54;100209.94;;;0.06;100.00
43707;BME280;61348;53.392;-6.248;2022-12-11T07:28:21;100216.50;;;0.05;100.00
43707;BME280;61348;53.392;-6.248;2022-12-11T07:30:48;100217.59;;;0.04;100.00
43707;BME280;61348;53.392;-6.248;2022-12-11T07:33:14;100213.53;;;0.02;100.00
43707;BME280;61348;53.392;-6.248;2022-12-11T07:35:41;100215.19;;;-0.03;100.00
43707;BME280;61348;53.392;-6.248;2022-12-11T07:38:08;100214.97;;;-0.06;100.00
43707;BME280;61348;53.392;-6.248;2022-12-11T07:40:34;100213.66;;;-0.09;100.00
43707;BME280;61348;53.392;-6.248;2022-12-11T07:43:01;100205.25;;;-0.12;100.00
43707;BME280;61348;53.392;-6.248;2022-12-11T07:45:28;100206.88;;;-0.11;100.00
43707;BME280;61348;53.392;-6.248;2022-12-11T07:47:55;100208.78;;;-0.12;100.00
43707;BME280;61348;53.392;-6.248;2022-12-11T07:50:22;100216.13;;;-0.12;100.00
43707;BME280;61348;53.392;-6.248;2022-12-11T07:52:49;100218.34;;;-0.14;100.00
43707;BME280;61348;53.392;-6.248;2022-12-11T07:55:15;100226.75;;;-0.16;100.00
43707;BME280;61348;53.392;-6.248;2022-12-11T07:57:42;100227.06;;;-0.17;100.00
43707;BME280;61348;53.392;-6.248;2022-12-11T08:00:09;100237.44;;;-0.19;100.00
43707;BME280;61348;53.392;-6.248;2022-12-11T08:02:37;100234.72;;;-0.19;100.00
43707;BME280;61348;53.392;-6.248;2022-12-11T08:05:04;100236.88;;;-0.21;100.00
43707;BME280;61348;53.392;-6.248;2022-12-11T08:07:33;100239.09;;;-0.23;100.00
43707;BME280;61348;53.392;-6.248;2022-12-11T08:10:01;100240.41;;;-0.21;100.00
43707;BME280;61348;53.392;-6.248;2022-12-11T08:12:28;100237.13;;;-0.18;100.00
43707;BME280;61348;53.392;-6.248;2022-12-11T08:14:54;100238.47;;;-0.15;100.00
43707;BME280;61348;53.392;-6.248;2022-12-11T08:17:21;100237.38;;;-0.14;100.00
43707;BME280;61348;53.392;-6.248;2022-12-11T08:19:57;100235.75;;;-0.15;100.00
43707;BME280;61348;53.392;-6.248;2022-12-11T08:22:24;100237.91;;;-0.12;100.00
43707;BME280;61348;53.392;-6.248;2022-12-11T08:24:51;100236.81;;;-0.11;100.00
43707;BME280;61348;53.392;-6.248;2022-12-11T08:27:17;100232.44;;;-0.12;100.00
43707;BME280;61348;53.392;-6.248;2022-12-11T08:29:44;100246.34;;;-0.14;100.00
43707;BME280;61348;53.392;-6.248;2022-12-11T08:32:12;100247.13;;;-0.13;100.00
43707;BME280;61348;53.392;-6.248;2022-12-11T08:34:42;100260.22;;;-0.15;100.00
43707;BME280;61348;53.392;-6.248;2022-12-11T08:37:08;100257.50;;;-0.15;100.00
43707;BME280;61348;53.392;-6.248;2022-12-11T08:39:35;100266.78;;;-0.16;100.00
43707;BME280;61348;53.392;-6.248;2022-12-11T08:42:02;100262.72;;;-0.19;100.00
43707;BME280;61348;53.392;-6.248;2022-12-11T08:44:29;100268.44;;;-0.20;100.00
43707;BME280;61348;53.392;-6.248;2022-12-11T08:46:55;100260.56;;;-0.22;100.00
43707;BME280;61348;53.392;-6.248;2022-12-11T08:49:22;100274.44;;;-0.23;100.00
43707;BME280;61348;53.392;-6.248;2022-12-11T08:51:49;100262.75;;;-0.24;100.00
43707;BME280;61348;53.392;-6.248;2022-12-11T08:54:16;100262.75;;;-0.24;100.00
43707;BME280;61348;53.392;-6.248;2022-12-11T08:56:42;100266.28;;;-0.23;100.00
43707;BME280;61348;53.392;-6.248;2022-12-11T08:59:09;100263.28;;;-0.22;100.00
43707;BME280;61348;53.392;-6.248;2022-12-11T09:01:36;100270.34;;;-0.21;100.00
43707;BME280;61348;53.392;-6.248;2022-12-11T09:04:03;100266.22;;;-0.18;100.00
43707;BME280;61348;53.392;-6.248;2022-12-11T09:06:31;100270.59;;;-0.17;100.00
43707;BME280;61348;53.392;-6.248;2022-12-11T09:09:00;100274.94;;;-0.16;100.00
43707;BME280;61348;53.392;-6.248;2022-12-11T09:11:30;100278.69;;;-0.12;100.00
43707;BME280;61348;53.392;-6.248;2022-12-11T09:13:57;100279.16;;;-0.05;100.00
43707;BME280;61348;53.392;-6.248;2022-12-11T09:16:33;100284.00;;;0.03;100.00
43707;BME280;61348;53.392;-6.248;2022-12-11T09:19:05;100278.50;;;0.08;100.00
43707;BME280;61348;53.392;-6.248;2022-12-11T09:21:32;100269.75;;;0.11;100.00
43707;BME280;61348;53.392;-6.248;2022-12-11T09:24:00;100276.84;;;0.12;100.00
43707;BME280;61348;53.392;-6.248;2022-12-11T09:26:28;100280.66;;;0.11;100.00
43707;BME280;61348;53.392;-6.248;2022-12-11T09:28:56;100275.78;;;0.08;100.00
43707;BME280;61348;53.392;-6.248;2022-12-11T09:31:28;100272.53;;;0.06;100.00
43707;BME280;61348;53.392;-6.248;2022-12-11T09:33:57;100281.22;;;0.08;100.00
43707;BME280;61348;53.392;-6.248;2022-12-11T09:36:25;100286.38;;;0.10;100.00
43707;BME280;61348;53.392;-6.248;2022-12-11T09:38:52;100287.22;;;0.10;100.00
43707;BME280;61348;53.392;-6.248;2022-12-11T09:44:01;100283.91;;;0.13;100.00
43707;BME280;61348;53.392;-6.248;2022-12-11T09:46:31;100285.78;;;0.18;100.00
43707;BME280;61348;53.392;-6.248;2022-12-11T09:49:01;100286.53;;;0.23;100.00
43707;BME280;61348;53.392;-6.248;2022-12-11T09:51:41;100289.75;;;0.25;100.00
43707;BME280;61348;53.392;-6.248;2022-12-11T09:54:11;100281.03;;;0.28;100.00
43707;BME280;61348;53.392;-6.248;2022-12-11T09:56:48;100281.84;;;0.29;100.00
43707;BME280;61348;53.392;-6.248;2022-12-11T09:59:33;100285.09;;;0.31;100.00
43707;BME280;61348;53.392;-6.248;2022-12-11T10:02:44;100276.63;;;0.32;100.00
43707;BME280;61348;53.392;-6.248;2022-12-11T10:08:07;100270.47;;;0.45;100.00
43707;BME280;61348;53.392;-6.248;2022-12-11T10:10:59;100268.81;;;0.49;100.00
43707;BME280;61348;53.392;-6.248;2022-12-11T10:13:39;100278.59;;;0.50;100.00
43707;BME280;61348;53.392;-6.248;2022-12-11T10:16:49;100273.94;;;0.51;100.00
43707;BME280;61348;53.392;-6.248;2022-12-11T10:19:29;100277.56;;;0.46;100.00
43707;BME280;61348;53.392;-6.248;2022-12-11T10:21:59;100279.53;;;0.41;100.00
43707;BME280;61348;53.392;-6.248;2022-12-11T10:24:39;100287.19;;;0.39;100.00
43707;BME280;61348;53.392;-6.248;2022-12-11T10:27:34;100288.78;;;0.40;100.00
43707;BME280;61348;53.392;-6.248;2022-12-11T10:30:47;100281.44;;;0.40;100.00
43707;BME280;61348;53.392;-6.248;2022-12-11T10:35:49;100271.09;;;0.42;100.00
43707;BME280;61348;53.392;-6.248;2022-12-11T10:38:45;100264.44;;;0.48;100.00
43707;BME280;61348;53.392;-6.248;2022-12-11T10:41:18;100277.72;;;0.55;100.00
43707;BME280;61348;53.392;-6.248;2022-12-11T10:43:48;100280.66;;;0.58;100.00
43707;BME280;61348;53.392;-6.248;2022-12-11T10:46:27;100270.59;;;0.59;100.00
43707;BME280;61348;53.392;-6.248;2022-12-11T10:48:56;100271.41;;;0.59;100.00
43707;BME280;61348;53.392;-6.248;2022-12-11T10:51:32;100271.41;;;0.59;100.00
43707;BME280;61348;53.392;-6.248;2022-12-11T10:54:05;100271.41;;;0.59;100.00
43707;BME280;61348;53.392;-6.248;2022-12-11T10:56:35;100267.59;;;0.60;100.00
43707;BME280;61348;53.392;-6.248;2022-12-11T10:59:03;100269.19;;;0.61;100.00
43707;BME280;61348;53.392;-6.248;2022-12-11T11:01:31;100272.47;;;0.64;100.00
43707;BME280;61348;53.392;-6.248;2022-12-11T11:04:05;100274.63;;;0.61;100.00
43707;BME280;61348;53.392;-6.248;2022-12-11T11:06:32;100270.31;;;0.60;100.00
43707;BME280;61348;53.392;-6.248;2022-12-11T11:09:00;100269.19;;;0.61;100.00
43707;BME280;61348;53.392;-6.248;2022-12-11T11:11:30;100276.03;;;0.59;100.00
43707;BME280;61348;53.392;-6.248;2022-12-11T11:14:21;100275.81;;;0.55;100.00
43707;BME280;61348;53.392;-6.248;2022-12-11T11:16:54;100261.66;;;0.53;100.00
43707;BME280;61348;53.392;-6.248;2022-12-11T11:19:34;100261.16;;;0.51;100.00
43707;BME280;61348;53.392;-6.248;2022-12-11T11:22:06;100259.53;;;0.50;100.00
43707;BME280;61348;53.392;-6.248;2022-12-11T11:24:39;100260.63;;;0.49;100.00
43707;BME280;61348;53.392;-6.248;2022-12-11T11:27:30;100253.78;;;0.52;100.00
43707;BME280;61348;53.392;-6.248;2022-12-11T11:30:30;100260.00;;;0.57;100.00
43707;BME280;61348;53.392;-6.248;2022-12-11T11:33:00;100261.84;;;0.62;100.00
43707;BME280;61348;53.392;-6.248;2022-12-11T11:35:30;100263.16;;;0.65;100.00
43707;BME280;61348;53.392;-6.248;2022-12-11T11:40:30;100269.06;;;0.72;100.00
43707;BME280;61348;53.392;-6.248;2022-12-11T11:46:07;100261.88;;;0.81;100.00
43707;BME280;61348;53.392;-6.248;2022-12-11T11:51:30;100264.38;;;0.96;100.00
43707;BME280;61348;53.392;-6.248;2022-12-11T11:54:02;100261.25;;;1.07;100.00
43707;BME280;61348;53.392;-6.248;2022-12-11T11:56:35;100249.38;;;1.17;100.00
43707;BME280;61348;53.392;-6.248;2022-12-11T12:01:53;100256.38;;;1.23;100.00
43707;BME280;61348;53.392;-6.248;2022-12-11T12:04:22;100249.00;;;1.23;100.00
43707;BME280;61348;53.392;-6.248;2022-12-11T12:10:13;100251.66;;;1.29;100.00
43707;BME280;61348;53.392;-6.248;2022-12-11T12:13:00;100250.25;;;1.31;100.00
43707;BME280;61348;53.392;-6.248;2022-12-11T12:21:26;100250.16;;;1.36;100.00
43707;BME280;61348;53.392;-6.248;2022-12-11T12:26:33;100237.84;;;1.39;100.00
43707;BME280;61348;53.392;-6.248;2022-12-11T12:29:20;100242.22;;;1.40;100.00
43707;BME280;61348;53.392;-6.248;2022-12-11T12:32:08;100236.44;;;1.41;100.00
43707;BME280;61348;53.392;-6.248;2022-12-11T12:38:08;100234.19;;;1.48;100.00
43707;BME280;61348;53.392;-6.248;2022-12-11T12:46:19;100225.47;;;1.78;100.00
43707;BME280;61348;53.392;-6.248;2022-12-11T12:48:48;100223.09;;;1.91;100.00
43707;BME280;61348;53.392;-6.248;2022-12-11T12:51:16;100227.81;;;1.99;100.00
43707;BME280;61348;53.392;-6.248;2022-12-11T12:53:51;100224.38;;;2.07;100.00
43707;BME280;61348;53.392;-6.248;2022-12-11T12:56:19;100226.75;;;2.13;100.00
43707;BME280;61348;53.392;-6.248;2022-12-11T12:58:47;100217.63;;;2.18;100.00
43707;BME280;61348;53.392;-6.248;2022-12-11T13:03:53;100223.19;;;2.13;100.00
43707;BME280;61348;53.392;-6.248;2022-12-11T13:06:42;100221.75;;;2.02;100.00
43707;BME280;61348;53.392;-6.248;2022-12-11T13:09:24;100220.84;;;1.93;100.00
43707;BME280;61348;53.392;-6.248;2022-12-11T13:11:53;100227.00;;;1.84;100.00
43707;BME280;61348;53.392;-6.248;2022-12-11T13:14:28;100224.66;;;1.78;100.00
43707;BME280;61348;53.392;-6.248;2022-12-11T13:17:23;100223.91;;;1.72;100.00
43707;BME280;61348;53.392;-6.248;2022-12-11T13:20:10;100236.06;;;1.66;100.00
43707;BME280;61348;53.392;-6.248;2022-12-11T13:22:47;100233.91;;;1.63;100.00
43707;BME280;61348;53.392;-6.248;2022-12-11T13:25:53;100237.56;;;1.59;100.00
43707;BME280;61348;53.392;-6.248;2022-12-11T13:28:27;100234.50;;;1.60;100.00
43707;BME280;61348;53.392;-6.248;2022-12-11T13:33:44;100235.06;;;1.76;100.00
43707;BME280;61348;53.392;-6.248;2022-12-11T13:38:51;100228.34;;;2.01;100.00
43707;BME280;61348;53.392;-6.248;2022-12-11T13:41:19;100232.09;;;2.05;100.00
43707;BME280;61348;53.392;-6.248;2022-12-11T13:43:48;100227.84;;;2.12;100.00
43707;BME280;61348;53.392;-6.248;2022-12-11T13:46:21;100233.91;;;2.23;100.00
43707;BME280;61348;53.392;-6.248;2022-12-11T13:48:52;100234.94;;;2.27;100.00
43707;BME280;61348;53.392;-6.248;2022-12-11T13:51:24;100234.63;;;2.28;100.00
43707;BME280;61348;53.392;-6.248;2022-12-11T13:54:06;100235.94;;;2.31;100.00